createdAt,value
2022-09-21T00:02:28.234Z,12.65
2022-09-21T00:05:11.990Z,12.35
2022-09-21T00:07:57.196Z,12.55
2022-09-21T00:10:41.338Z,12.34
2022-09-21T00:13:28.258Z,12.24
2022-09-21T00:16:12.160Z,12.21
2022-09-21T00:18:55.983Z,12.31
2022-09-21T00:21:40.205Z,12.18
2022-09-21T00:24:25.348Z,12.15
2022-09-21T00:27:09.085Z,12.05
2022-09-21T00:29:53.051Z,12.00
2022-09-21T00:32:38.283Z,11.87
2022-09-21T00:35:21.998Z,11.55
2022-09-21T00:38:06.259Z,11.74
2022-09-21T00:40:51.447Z,11.74
2022-09-21T00:43:36.785Z,11.71
2022-09-21T00:46:27.563Z,11.62
2022-09-21T00:49:11.450Z,11.62
2022-09-21T00:51:56.679Z,11.57
2022-09-21T00:54:48.111Z,12.04
2022-09-21T00:57:35.526Z,12.26
2022-09-21T01:00:19.501Z,12.42
2022-09-21T01:03:03.641Z,12.33
2022-09-21T01:05:47.433Z,12.10
2022-09-21T01:08:31.565Z,12.22
2022-09-21T01:11:34.400Z,12.31
2022-09-21T01:14:45.923Z,12.26
2022-09-21T01:17:43.575Z,12.21
2022-09-21T01:20:52.579Z,11.99
2022-09-21T01:24:10.033Z,12.01
2022-09-21T01:27:30.292Z,11.77
2022-09-21T01:30:18.404Z,11.84
2022-09-21T01:33:07.604Z,11.86
2022-09-21T01:35:57.043Z,11.80
2022-09-21T01:38:46.322Z,11.94
2022-09-21T01:41:33.865Z,11.88
2022-09-21T01:44:22.146Z,11.67
2022-09-21T01:47:11.957Z,11.71
2022-09-21T01:50:01.292Z,11.61
2022-09-21T01:52:51.553Z,11.71
2022-09-21T01:55:42.657Z,11.70
2022-09-21T01:58:33.293Z,11.87
2022-09-21T02:01:22.339Z,11.72
2022-09-21T02:04:12.313Z,11.76
2022-09-21T02:06:56.652Z,11.52
2022-09-21T02:09:40.845Z,11.54
2022-09-21T02:12:24.888Z,11.06
2022-09-21T02:15:09.930Z,11.39
2022-09-21T02:18:02.348Z,11.20
2022-09-21T02:20:54.541Z,11.34
2022-09-21T02:23:44.086Z,11.07
2022-09-21T02:26:34.021Z,11.16
2022-09-21T02:29:24.125Z,11.21
2022-09-21T02:32:10.552Z,11.10
2022-09-21T02:34:58.572Z,11.17
2022-09-21T02:37:49.648Z,11.19
2022-09-21T02:40:40.271Z,11.37
2022-09-21T02:43:29.321Z,11.35
2022-09-21T02:46:17.410Z,11.50
2022-09-21T02:49:08.708Z,11.64
2022-09-21T02:51:55.113Z,11.68
2022-09-21T02:54:43.099Z,11.73
2022-09-21T02:57:27.779Z,11.43
2022-09-21T03:00:13.117Z,11.70
2022-09-21T03:02:56.885Z,11.54
2022-09-21T03:05:40.669Z,11.58
2022-09-21T03:08:24.365Z,11.56
2022-09-21T03:11:10.920Z,11.39
2022-09-21T03:13:54.840Z,11.25
2022-09-21T03:16:39.608Z,11.38
2022-09-21T03:19:23.360Z,11.42
2022-09-21T03:22:07.145Z,11.11
2022-09-21T03:24:51.314Z,11.37
2022-09-21T03:27:36.588Z,11.24
2022-09-21T03:30:20.868Z,11.05
2022-09-21T03:33:05.917Z,11.28
2022-09-21T03:35:50.382Z,11.06
2022-09-21T03:38:34.337Z,11.25
2022-09-21T03:41:19.002Z,10.77
2022-09-21T03:44:04.931Z,10.87
2022-09-21T03:46:48.770Z,10.83
2022-09-21T03:49:32.628Z,11.07
2022-09-21T03:52:16.453Z,11.04
2022-09-21T03:55:00.228Z,11.02
2022-09-21T03:57:43.995Z,10.79
2022-09-21T04:00:29.464Z,10.44
2022-09-21T04:03:13.244Z,10.82
2022-09-21T04:05:57.023Z,10.91
2022-09-21T04:08:40.721Z,11.03
2022-09-21T04:11:24.695Z,10.82
2022-09-21T04:14:08.446Z,10.66
2022-09-21T04:16:54.092Z,10.82
2022-09-21T04:19:37.783Z,10.86
2022-09-21T04:22:21.504Z,10.95
2022-09-21T04:25:06.422Z,10.97
2022-09-21T04:27:50.218Z,11.04
2022-09-21T04:30:37.698Z,11.32
2022-09-21T04:33:24.060Z,11.31
2022-09-21T04:36:08.193Z,11.56
2022-09-21T04:38:52.099Z,11.72
2022-09-21T04:41:35.923Z,11.73
2022-09-21T04:44:19.950Z,11.74
2022-09-21T04:47:03.809Z,11.75
2022-09-21T04:49:49.019Z,11.88
2022-09-21T04:52:33.085Z,12.00
2022-09-21T04:55:17.048Z,11.90
2022-09-21T04:58:00.905Z,12.02
2022-09-21T05:00:44.686Z,12.13
2022-09-21T05:03:28.973Z,12.10
2022-09-21T05:06:15.109Z,12.12
2022-09-21T05:09:16.605Z,12.04
2022-09-21T05:12:00.489Z,12.18
2022-09-21T05:14:45.206Z,12.41
2022-09-21T05:17:29.391Z,12.61
2022-09-21T05:20:13.171Z,12.50
2022-09-21T05:23:01.737Z,12.52
2022-09-21T05:25:45.557Z,12.76
2022-09-21T05:28:29.768Z,12.89
2022-09-21T05:31:28.750Z,12.91
2022-09-21T05:34:27.012Z,13.10
2022-09-21T05:37:18.358Z,13.13
2022-09-21T05:40:04.970Z,13.21
2022-09-21T05:42:49.526Z,13.12
2022-09-21T05:45:34.336Z,13.08
2022-09-21T05:48:20.753Z,13.19
2022-09-21T05:51:10.228Z,13.58
2022-09-21T05:54:00.586Z,13.67
2022-09-21T05:56:54.948Z,13.70
2022-09-21T05:59:54.541Z,13.43
2022-09-21T06:03:17.436Z,13.74
2022-09-21T06:06:01.605Z,13.86
2022-09-21T06:08:45.522Z,13.99
2022-09-21T06:11:29.314Z,14.05
2022-09-21T06:14:14.417Z,13.40
2022-09-21T06:16:58.318Z,14.30
2022-09-21T06:19:42.028Z,14.37
2022-09-21T06:22:26.105Z,13.80
2022-09-21T06:25:10.119Z,14.18
2022-09-21T06:27:54.407Z,13.79
2022-09-21T06:30:42.316Z,13.81
2022-09-21T06:33:26.579Z,14.22
2022-09-21T06:36:10.316Z,14.19
2022-09-21T06:38:54.212Z,13.96
2022-09-21T06:41:38.036Z,14.34
2022-09-21T06:44:27.134Z,14.51
2022-09-21T06:47:12.232Z,14.25
2022-09-21T06:49:56.065Z,14.40
2022-09-21T06:52:40.681Z,14.75
2022-09-21T06:55:24.431Z,14.63
2022-09-21T06:58:08.351Z,14.58
2022-09-21T07:00:52.206Z,14.72
2022-09-21T07:03:38.118Z,14.58
2022-09-21T07:06:22.034Z,14.96
2022-09-21T07:12:09.874Z,15.70
2022-09-21T07:14:53.519Z,15.74
2022-09-21T07:17:38.979Z,16.23
2022-09-21T07:20:24.263Z,15.69
2022-09-21T07:23:12.271Z,15.82
2022-09-21T07:25:56.082Z,16.04
2022-09-21T07:28:40.501Z,16.28
2022-09-21T07:31:24.237Z,16.49
2022-09-21T07:34:08.147Z,15.93
2022-09-21T07:36:54.168Z,16.32
2022-09-21T07:39:38.939Z,16.67
2022-09-21T07:42:25.024Z,16.75
2022-09-21T07:45:10.171Z,16.71
2022-09-21T07:47:54.827Z,17.01
2022-09-21T07:50:38.641Z,16.91
2022-09-21T07:53:23.777Z,17.40
2022-09-21T07:56:10.419Z,16.97
2022-09-21T07:59:08.418Z,17.00
2022-09-21T08:01:52.205Z,16.89
2022-09-21T08:04:36.152Z,16.68
2022-09-21T08:07:20.128Z,17.15
2022-09-21T08:10:05.329Z,16.82
2022-09-21T08:12:49.097Z,17.13
2022-09-21T08:15:50.020Z,17.43
2022-09-21T08:18:37.565Z,17.19
2022-09-21T08:21:21.840Z,17.16
2022-09-21T08:24:06.096Z,17.39
2022-09-21T08:26:52.308Z,17.55
2022-09-21T08:29:36.335Z,17.42
2022-09-21T08:32:39.739Z,17.68
2022-09-21T08:35:23.824Z,17.73
2022-09-21T08:38:08.006Z,17.65
2022-09-21T08:40:53.783Z,17.93
2022-09-21T08:43:43.440Z,17.53
2022-09-21T08:46:32.719Z,17.68
2022-09-21T08:49:21.598Z,17.84
2022-09-21T08:52:08.586Z,17.50
2022-09-21T08:54:57.844Z,17.62
2022-09-21T08:57:41.654Z,17.55
2022-09-21T09:00:27.369Z,18.36
2022-09-21T09:03:27.231Z,18.24
2022-09-21T09:06:16.187Z,18.11
2022-09-21T09:09:19.564Z,18.44
2022-09-21T09:12:18.627Z,18.43
2022-09-21T09:15:19.206Z,18.38
2022-09-21T09:18:10.846Z,18.64
2022-09-21T09:20:59.025Z,18.56
2022-09-21T09:23:46.514Z,18.78
2022-09-21T09:26:37.598Z,18.56
2022-09-21T09:29:27.818Z,18.49
2022-09-21T09:32:15.781Z,18.86
2022-09-21T09:35:06.458Z,19.32
2022-09-21T09:37:52.979Z,18.59
2022-09-21T09:40:56.581Z,19.21
2022-09-21T09:43:52.279Z,19.26
2022-09-21T09:46:51.270Z,18.87
2022-09-21T09:49:43.741Z,19.46
2022-09-21T09:52:28.962Z,19.60
2022-09-21T09:55:20.238Z,19.87
2022-09-21T09:58:04.091Z,20.07
2022-09-21T10:00:52.154Z,20.45
2022-09-21T10:03:37.428Z,20.16
2022-09-21T10:06:32.806Z,19.95
2022-09-21T10:09:26.591Z,19.87
2022-09-21T10:12:20.587Z,19.41
2022-09-21T10:15:05.195Z,20.10
2022-09-21T10:17:50.142Z,20.24
2022-09-21T10:20:34.500Z,20.40
2022-09-21T10:23:18.464Z,20.83
2022-09-21T10:26:08.684Z,21.54
2022-09-21T10:29:00.640Z,20.87
2022-09-21T10:31:57.925Z,20.31
2022-09-21T10:34:43.138Z,20.60
2022-09-21T10:37:29.388Z,21.18
2022-09-21T10:40:25.627Z,21.12
2022-09-21T10:43:25.663Z,20.76
2022-09-21T10:46:09.784Z,20.46
2022-09-21T10:48:53.845Z,20.01
2022-09-21T10:51:37.826Z,19.28
2022-09-21T10:54:27.307Z,19.32
2022-09-21T10:57:17.919Z,19.56
2022-09-21T11:00:29.482Z,19.86
2022-09-21T11:03:43.317Z,19.50
2022-09-21T11:06:32.306Z,20.14
2022-09-21T11:09:22.441Z,19.62
2022-09-21T11:12:19.023Z,19.31
2022-09-21T11:15:14.036Z,19.14
2022-09-21T11:18:06.110Z,18.96
2022-09-21T11:20:54.180Z,19.17
2022-09-21T11:23:48.523Z,18.77
2022-09-21T11:26:40.744Z,19.04
2022-09-21T11:29:30.760Z,18.85
2022-09-21T11:32:34.963Z,18.83
2022-09-21T11:35:35.287Z,18.81
2022-09-21T11:38:34.401Z,19.35
2022-09-21T11:41:35.851Z,18.96
2022-09-21T11:44:33.384Z,19.36
2022-09-21T11:47:35.110Z,19.33
2022-09-21T11:50:32.114Z,19.06
2022-09-21T11:53:43.438Z,19.23
2022-09-21T11:56:43.816Z,18.79
2022-09-21T11:59:43.891Z,18.04
2022-09-21T12:03:02.930Z,17.08
2022-09-21T12:05:55.809Z,16.46
2022-09-21T12:09:21.043Z,15.73
2022-09-21T12:12:11.182Z,15.70
2022-09-21T12:15:03.968Z,14.99
2022-09-21T12:17:58.202Z,15.27
2022-09-21T12:20:51.315Z,15.57
2022-09-21T12:23:42.785Z,15.57
2022-09-21T12:26:32.556Z,16.09
2022-09-21T12:29:25.365Z,16.32
2022-09-21T12:32:20.619Z,17.31
2022-09-21T12:35:13.483Z,17.72
2022-09-21T12:38:03.576Z,17.29
2022-09-21T12:40:53.376Z,18.05
2022-09-21T12:43:51.302Z,17.64
2022-09-21T12:46:42.006Z,18.30
2022-09-21T12:49:32.075Z,17.94
2022-09-21T12:52:22.917Z,17.99
2022-09-21T12:55:24.961Z,17.98
2022-09-21T12:58:16.193Z,18.50
2022-09-21T13:01:12.440Z,19.19
2022-09-21T13:04:12.529Z,19.66
2022-09-21T13:07:19.827Z,19.26
2022-09-21T13:10:16.866Z,18.01
2022-09-21T13:13:03.304Z,18.64
2022-09-21T13:15:49.703Z,18.20
2022-09-21T13:18:36.657Z,18.44
2022-09-21T13:21:23.378Z,18.62
2022-09-21T13:24:14.662Z,18.12
2022-09-21T13:27:05.464Z,18.68
2022-09-21T13:30:30.199Z,18.99
2022-09-21T13:33:40.237Z,18.38
2022-09-21T13:36:32.866Z,18.21
2022-09-21T13:39:19.165Z,18.70
2022-09-21T13:42:49.254Z,18.68
2022-09-21T13:45:52.417Z,18.26
2022-09-21T13:48:37.472Z,18.15
2022-09-21T13:51:21.346Z,18.34
2022-09-21T13:54:06.190Z,18.95
2022-09-21T13:57:04.793Z,19.43
2022-09-21T14:00:07.492Z,19.92
2022-09-21T14:03:01.748Z,19.31
2022-09-21T14:05:49.746Z,19.70
2022-09-21T14:08:37.143Z,19.41
2022-09-21T14:11:31.133Z,18.95
2022-09-21T14:14:25.815Z,18.50
2022-09-21T14:17:36.817Z,17.42
2022-09-21T14:20:30.737Z,17.21
2022-09-21T14:23:30.316Z,16.36
2022-09-21T14:26:24.541Z,16.12
2022-09-21T14:29:18.423Z,16.35
2022-09-21T14:32:05.799Z,16.43
2022-09-21T14:34:53.117Z,16.26
2022-09-21T14:37:41.839Z,15.92
2022-09-21T14:40:28.992Z,15.94
2022-09-21T14:43:20.946Z,16.09
2022-09-21T14:46:33.322Z,15.69
2022-09-21T14:49:33.246Z,15.73
2022-09-21T14:52:33.826Z,15.73
2022-09-21T14:55:24.156Z,15.80
2022-09-21T14:58:32.183Z,16.05
2022-09-21T15:01:38.163Z,16.18
2022-09-21T15:04:32.080Z,16.22
2022-09-21T15:07:53.251Z,16.31
2022-09-21T15:10:58.330Z,16.64
2022-09-21T15:14:03.751Z,16.68
2022-09-21T15:16:50.934Z,16.88
2022-09-21T15:19:38.465Z,17.02
2022-09-21T15:22:27.366Z,17.30
2022-09-21T15:25:15.507Z,17.39
2022-09-21T15:28:00.156Z,17.63
2022-09-21T15:30:46.723Z,17.27
2022-09-21T15:33:33.326Z,16.98
2022-09-21T15:36:22.766Z,17.38
2022-09-21T15:39:07.376Z,17.30
2022-09-21T15:42:13.941Z,16.95
2022-09-21T15:45:15.260Z,16.69
2022-09-21T15:47:59.498Z,16.50
2022-09-21T15:50:45.567Z,15.94
2022-09-21T15:53:34.851Z,16.08
2022-09-21T15:56:22.133Z,15.69
2022-09-21T15:59:09.449Z,15.66
2022-09-21T16:01:57.731Z,15.40
2022-09-21T16:04:49.417Z,15.59
2022-09-21T16:07:35.825Z,15.65
2022-09-21T16:10:39.685Z,15.62
2022-09-21T16:13:42.623Z,15.75
2022-09-21T16:16:28.497Z,15.76
2022-09-21T16:19:12.647Z,15.75
2022-09-21T16:22:05.204Z,15.49
2022-09-21T16:24:52.751Z,15.20
2022-09-21T16:27:36.940Z,14.72
2022-09-21T16:30:41.364Z,15.06
2022-09-21T16:33:43.461Z,15.13
2022-09-21T16:36:42.789Z,15.07
2022-09-21T16:39:27.747Z,14.68
2022-09-21T16:42:12.352Z,14.94
2022-09-21T16:44:56.897Z,14.67
2022-09-21T16:47:41.116Z,14.30
2022-09-21T16:50:27.064Z,14.42
2022-09-21T16:53:11.196Z,14.59
2022-09-21T16:55:56.868Z,14.66
2022-09-21T16:58:43.743Z,14.78
2022-09-21T17:01:28.794Z,14.56
2022-09-21T17:04:14.082Z,14.71
2022-09-21T17:07:00.508Z,14.14
2022-09-21T17:09:47.855Z,14.10
2022-09-21T17:12:32.262Z,13.97
2022-09-21T17:15:16.412Z,13.89
2022-09-21T17:18:00.553Z,13.74
2022-09-21T17:20:45.964Z,13.56
2022-09-21T17:23:31.366Z,13.76
2022-09-21T17:26:21.207Z,13.92
2022-09-21T17:29:15.704Z,13.87
2022-09-21T17:31:59.892Z,14.19
2022-09-21T17:34:43.767Z,14.16
2022-09-21T17:37:27.569Z,14.09
2022-09-21T17:40:14.892Z,13.97
2022-09-21T17:43:12.008Z,13.98
2022-09-21T17:46:03.722Z,13.95
2022-09-21T17:48:48.371Z,13.86
2022-09-21T17:51:48.240Z,13.85
2022-09-21T17:54:32.652Z,13.84
2022-09-21T17:57:31.226Z,13.93
2022-09-21T18:00:20.398Z,13.94
2022-09-21T18:03:05.284Z,13.80
2022-09-21T18:05:50.830Z,13.87
2022-09-21T18:08:36.574Z,13.93
2022-09-21T18:11:52.135Z,13.99
2022-09-21T18:14:48.801Z,13.84
2022-09-21T18:17:54.935Z,13.73
2022-09-21T18:20:48.967Z,13.66
2022-09-21T18:23:42.343Z,13.60
2022-09-21T18:26:26.918Z,13.84
2022-09-21T18:29:38.849Z,13.96
2022-09-21T18:32:49.353Z,13.84
2022-09-21T18:35:49.536Z,14.03
2022-09-21T18:38:39.760Z,13.75
2022-09-21T18:41:34.601Z,13.47
2022-09-21T18:44:26.403Z,13.40
2022-09-21T18:47:16.782Z,13.53
2022-09-21T18:50:08.794Z,13.77
2022-09-21T18:53:02.073Z,13.86
2022-09-21T18:55:47.142Z,14.23
2022-09-21T18:58:32.027Z,14.01
2022-09-21T19:01:19.126Z,13.99
2022-09-21T19:04:03.903Z,14.07
2022-09-21T19:06:56.046Z,13.83
2022-09-21T19:09:46.169Z,13.28
2022-09-21T19:12:53.130Z,13.39
2022-09-21T19:16:00.471Z,13.75
2022-09-21T19:18:54.155Z,13.49
2022-09-21T19:21:47.127Z,13.10
2022-09-21T19:24:39.527Z,13.03
2022-09-21T19:27:33.883Z,12.99
2022-09-21T19:30:18.836Z,13.00
2022-09-21T19:33:45.586Z,12.50
2022-09-21T19:36:25.315Z,12.48
2022-09-21T19:39:10.615Z,12.41
2022-09-21T19:42:07.902Z,12.52
2022-09-21T19:45:07.953Z,12.31
2022-09-21T19:47:53.988Z,12.13
2022-09-21T19:50:41.647Z,12.23
2022-09-21T19:53:43.925Z,12.44
2022-09-21T19:56:46.096Z,12.65
2022-09-21T19:59:44.055Z,12.72
2022-09-21T20:02:32.739Z,12.81
2022-09-21T20:05:23.400Z,12.91
2022-09-21T20:08:17.866Z,12.87
2022-09-21T20:11:13.192Z,12.96
2022-09-21T20:14:12.227Z,12.81
2022-09-21T20:17:00.912Z,12.96
2022-09-21T20:19:51.863Z,13.07
2022-09-21T20:22:37.697Z,12.86
2022-09-21T20:25:26.410Z,13.08
2022-09-21T20:28:11.616Z,12.80
2022-09-21T20:30:55.701Z,13.05
2022-09-21T20:33:40.965Z,12.92
2022-09-21T20:36:24.852Z,12.20
2022-09-21T20:39:08.648Z,12.77
2022-09-21T20:41:52.445Z,12.89
2022-09-21T20:44:36.213Z,12.72
2022-09-21T20:47:21.399Z,12.87
2022-09-21T20:50:10.174Z,12.68
2022-09-21T20:52:53.979Z,12.55
2022-09-21T20:55:37.857Z,12.67
2022-09-21T20:58:21.730Z,12.95
2022-09-21T21:01:06.488Z,12.84
2022-09-21T21:03:51.063Z,13.02
2022-09-21T21:06:37.762Z,12.90
2022-09-21T21:09:21.539Z,12.55
2022-09-21T21:12:05.705Z,12.73
2022-09-21T21:14:49.687Z,12.56
2022-09-21T21:17:35.787Z,12.58
2022-09-21T21:20:20.351Z,12.34
2022-09-21T21:23:08.029Z,12.71
2022-09-21T21:25:52.087Z,12.75
2022-09-21T21:28:36.202Z,12.53
2022-09-21T21:31:21.605Z,12.70
2022-09-21T21:34:05.438Z,12.86
2022-09-21T21:36:49.224Z,12.49
2022-09-21T21:39:34.863Z,12.28
2022-09-21T21:42:19.136Z,12.32
2022-09-21T21:45:02.874Z,12.33
2022-09-21T21:47:47.583Z,12.15
2022-09-21T21:50:31.814Z,11.99
2022-09-21T21:53:15.559Z,11.90
2022-09-21T21:56:09.195Z,11.83
2022-09-21T21:58:54.606Z,11.46
2022-09-21T22:01:39.354Z,11.18
2022-09-21T22:04:27.083Z,11.14
2022-09-21T22:07:11.915Z,11.67
2022-09-21T22:09:55.698Z,11.20
2022-09-21T22:12:40.731Z,11.29
2022-09-21T22:15:26.176Z,11.25
2022-09-21T22:18:09.942Z,11.48
2022-09-21T22:20:53.726Z,11.26
2022-09-21T22:23:38.077Z,11.43
2022-09-21T22:26:22.162Z,11.06
2022-09-21T22:29:09.548Z,11.22
2022-09-21T22:31:55.343Z,11.30
2022-09-21T22:34:39.522Z,11.02
2022-09-21T22:37:23.298Z,11.23
2022-09-21T22:40:08.308Z,10.95
2022-09-21T22:42:52.147Z,11.09
2022-09-21T22:45:37.337Z,11.13
2022-09-21T22:48:21.274Z,10.78
2022-09-21T22:51:05.824Z,10.68
2022-09-21T22:53:51.194Z,11.00
2022-09-21T22:56:35.126Z,10.60
2022-09-21T22:59:18.803Z,10.77
2022-09-21T23:02:03.893Z,10.93
2022-09-21T23:04:47.530Z,10.82
2022-09-21T23:07:31.283Z,10.40
2022-09-21T23:10:15.104Z,10.38
2022-09-21T23:12:58.947Z,10.52
2022-09-21T23:15:42.992Z,10.52
2022-09-21T23:18:28.157Z,10.56
2022-09-21T23:21:14.114Z,10.35
2022-09-21T23:24:00.036Z,10.39
2022-09-21T23:26:44.249Z,10.66
2022-09-21T23:29:28.104Z,10.46
2022-09-21T23:32:11.981Z,10.31
2022-09-21T23:34:57.128Z,10.64
2022-09-21T23:37:40.825Z,10.11
2022-09-21T23:40:24.659Z,10.47
2022-09-21T23:43:08.414Z,10.48
2022-09-21T23:45:52.044Z,10.34
2022-09-21T23:48:36.434Z,10.33
2022-09-21T23:51:22.827Z,10.22
2022-09-21T23:54:07.140Z,10.20
2022-09-21T23:56:51.107Z,10.22
2022-09-21T23:59:34.892Z,9.75
